sensor_id;sensor_type;location;lat;lon;timestamp;pressure;altitude;pressure_sealevel;temperature;humidity
3150;BME280;32503;47.748;8.960;2023-01-25T00:00:43;98299.94;;;4.66;68.18
3150;BME280;32503;47.748;8.960;2023-01-25T00:03:10;98297.81;;;4.63;68.15
3150;BME280;32503;47.748;8.960;2023-01-25T00:05:37;98286.72;;;4.75;67.61
3150;BME280;32503;47.748;8.960;2023-01-25T00:08:05;98294.78;;;4.75;67.78
3150;BME280;32503;47.748;8.960;2023-01-25T00:10:32;98282.44;;;4.74;67.41
3150;BME280;32503;47.748;8.960;2023-01-25T00:13:00;98284.56;;;4.77;67.57
3150;BME280;32503;47.748;8.960;2023-01-25T00:15:27;98279.72;;;4.79;67.40
3150;BME280;32503;47.748;8.960;2023-01-25T00:17:54;98286.09;;;4.83;67.33
3150;BME280;32503;47.748;8.960;2023-01-25T00:20:21;98284.25;;;4.84;67.54
3150;BME280;32503;47.748;8.960;2023-01-25T00:22:48;98292.91;;;4.70;67.34
3150;BME280;32503;47.748;8.960;2023-01-25T00:25:15;98287.75;;;4.79;67.06
3150;BME280;32503;47.748;8.960;2023-01-25T00:27:42;98288.28;;;4.81;67.09
3150;BME280;32503;47.748;8.960;2023-01-25T00:30:12;98281.34;;;4.80;67.24
3150;BME280;32503;47.748;8.960;2023-01-25T00:32:56;98278.94;;;4.79;67.27
3150;BME280;32503;47.748;8.960;2023-01-25T00:35:30;98285.31;;;4.83;66.96
3150;BME280;32503;47.748;8.960;2023-01-25T00:38:01;98279.94;;;4.83;67.10
3150;BME280;32503;47.748;8.960;2023-01-25T00:40:28;98274.91;;;4.76;67.31
3150;BME280;32503;47.748;8.960;2023-01-25T00:42:55;98283.56;;;4.68;67.42
3150;BME280;32503;47.748;8.960;2023-01-25T00:45:25;98270.22;;;4.63;67.65
3150;BME280;32503;47.748;8.960;2023-01-25T00:47:54;98270.22;;;4.63;67.59
3150;BME280;32503;47.748;8.960;2023-01-25T00:50:21;98261.56;;;4.71;67.51
3150;BME280;32503;47.748;8.960;2023-01-25T00:52:48;98265.34;;;4.70;67.70
3150;BME280;32503;47.748;8.960;2023-01-25T00:55:15;98258.59;;;4.72;67.60
3150;BME280;32503;47.748;8.960;2023-01-25T00:57:42;98259.66;;;4.77;67.62
3150;BME280;32503;47.748;8.960;2023-01-25T01:00:11;98259.66;;;4.77;67.73
3150;BME280;32503;47.748;8.960;2023-01-25T01:02:39;98266.59;;;4.78;67.64
3150;BME280;32503;47.748;8.960;2023-01-25T01:05:07;98256.97;;;4.77;67.69
3150;BME280;32503;47.748;8.960;2023-01-25T01:07:34;98258.31;;;4.74;67.57
3150;BME280;32503;47.748;8.960;2023-01-25T01:10:01;98264.78;;;4.73;67.50
3150;BME280;32503;47.748;8.960;2023-01-25T01:12:28;98260.97;;;4.79;67.62
3150;BME280;32503;47.748;8.960;2023-01-25T01:14:56;98256.16;;;4.76;67.49
3150;BME280;32503;47.748;8.960;2023-01-25T01:17:23;98260.16;;;4.79;67.22
3150;BME280;32503;47.748;8.960;2023-01-25T01:19:52;98266.84;;;4.81;67.31
3150;BME280;32503;47.748;8.960;2023-01-25T01:22:19;98267.47;;;4.73;67.60
3150;BME280;32503;47.748;8.960;2023-01-25T01:24:47;98256.44;;;4.74;67.63
3150;BME280;32503;47.748;8.960;2023-01-25T01:27:14;98267.97;;;4.75;67.11
3150;BME280;32503;47.748;8.960;2023-01-25T01:29:41;98263.44;;;4.70;67.58
3150;BME280;32503;47.748;8.960;2023-01-25T01:32:09;98269.13;;;4.64;67.51
3150;BME280;32503;47.748;8.960;2023-01-25T01:34:36;98260.84;;;4.60;68.02
3150;BME280;32503;47.748;8.960;2023-01-25T01:37:04;98266.91;;;4.71;67.47
3150;BME280;32503;47.748;8.960;2023-01-25T01:39:31;98264.78;;;4.73;67.29
3150;BME280;32503;47.748;8.960;2023-01-25T01:41:58;98261.56;;;4.71;67.56
3150;BME280;32503;47.748;8.960;2023-01-25T01:44:47;98255.69;;;4.69;67.75
3150;BME280;32503;47.748;8.960;2023-01-25T01:47:19;98265.09;;;4.66;67.47
3150;BME280;32503;47.748;8.960;2023-01-25T01:49:52;98258.38;;;4.69;67.94
3150;BME280;32503;47.748;8.960;2023-01-25T01:52:26;98253.19;;;4.48;68.25
3150;BME280;32503;47.748;8.960;2023-01-25T01:54:58;98266.59;;;4.48;68.83
3150;BME280;32503;47.748;8.960;2023-01-25T01:57:33;98266.25;;;4.55;68.72
3150;BME280;32503;47.748;8.960;2023-01-25T02:00:05;98251.59;;;4.47;68.08
3150;BME280;32503;47.748;8.960;2023-01-25T02:02:34;98261.16;;;4.53;68.85
3150;BME280;32503;47.748;8.960;2023-01-25T02:05:05;98260.38;;;4.53;68.77
3150;BME280;32503;47.748;8.960;2023-01-25T02:07:37;98255.22;;;4.62;68.51
3150;BME280;32503;47.748;8.960;2023-01-25T02:10:07;98244.50;;;4.62;67.84
3150;BME280;32503;47.748;8.960;2023-01-25T02:12:36;98242.63;;;4.62;67.97
3150;BME280;32503;47.748;8.960;2023-01-25T02:15:05;98253.25;;;4.72;68.00
3150;BME280;32503;47.748;8.960;2023-01-25T02:17:35;98253.00;;;4.69;67.91
3150;BME280;32503;47.748;8.960;2023-01-25T02:20:09;98248.97;;;4.71;67.91
3150;BME280;32503;47.748;8.960;2023-01-25T02:22:47;98259.34;;;4.49;68.17
3150;BME280;32503;47.748;8.960;2023-01-25T02:25:19;98245.66;;;4.16;69.26
3150;BME280;32503;47.748;8.960;2023-01-25T02:27:52;98250.66;;;4.28;69.40
3150;BME280;32503;47.748;8.960;2023-01-25T02:30:20;98244.22;;;4.29;69.45
3150;BME280;32503;47.748;8.960;2023-01-25T02:32:48;98245.75;;;4.40;68.86
3150;BME280;32503;47.748;8.960;2023-01-25T02:35:19;98222.72;;;4.39;68.79
3150;BME280;32503;47.748;8.960;2023-01-25T02:37:47;98245.09;;;4.53;68.68
3150;BME280;32503;47.748;8.960;2023-01-25T02:40:15;98243.28;;;4.49;68.50
3150;BME280;32503;47.748;8.960;2023-01-25T02:42:45;98238.75;;;4.44;69.03
3150;BME280;32503;47.748;8.960;2023-01-25T02:45:15;98218.22;;;4.34;69.28
3150;BME280;32503;47.748;8.960;2023-01-25T02:47:44;98238.81;;;4.34;69.33
3150;BME280;32503;47.748;8.960;2023-01-25T02:50:13;98240.41;;;4.40;69.30
3150;BME280;32503;47.748;8.960;2023-01-25T02:52:40;98232.88;;;4.42;69.30
3150;BME280;32503;47.748;8.960;2023-01-25T02:55:08;98237.19;;;4.38;69.34
3150;BME280;32503;47.748;8.960;2023-01-25T02:57:35;98233.44;;;4.39;69.27
3150;BME280;32503;47.748;8.960;2023-01-25T03:00:06;98231.25;;;4.41;69.66
3150;BME280;32503;47.748;8.960;2023-01-25T03:02:33;98236.09;;;4.39;69.12
3150;BME280;32503;47.748;8.960;2023-01-25T03:05:01;98233.78;;;4.32;69.38
3150;BME280;32503;47.748;8.960;2023-01-25T03:07:28;98232.16;;;4.31;68.94
3150;BME280;32503;47.748;8.960;2023-01-25T03:09:55;98218.03;;;4.26;69.12
3150;BME280;32503;47.748;8.960;2023-01-25T03:12:22;98237.28;;;4.28;68.78
3150;BME280;32503;47.748;8.960;2023-01-25T03:14:49;98239.72;;;4.24;68.64
3150;BME280;32503;47.748;8.960;2023-01-25T03:17:17;98224.47;;;4.20;69.12
3150;BME280;32503;47.748;8.960;2023-01-25T03:19:44;98222.31;;;4.22;69.04
3150;BME280;32503;47.748;8.960;2023-01-25T03:22:11;98216.38;;;4.30;68.85
3150;BME280;32503;47.748;8.960;2023-01-25T03:24:38;98226.56;;;4.28;68.93
3150;BME280;32503;47.748;8.960;2023-01-25T03:27:05;98212.59;;;4.36;68.61
3150;BME280;32503;47.748;8.960;2023-01-25T03:29:39;98216.06;;;4.36;68.54
3150;BME280;32503;47.748;8.960;2023-01-25T03:32:07;98213.56;;;4.45;68.18
3150;BME280;32503;47.748;8.960;2023-01-25T03:34:35;98210.34;;;4.48;68.22
3150;BME280;32503;47.748;8.960;2023-01-25T03:37:02;98207.34;;;4.50;68.30
3150;BME280;32503;47.748;8.960;2023-01-25T03:39:29;98205.63;;;4.35;68.55
3150;BME280;32503;47.748;8.960;2023-01-25T03:41:56;98209.53;;;4.48;68.45
3150;BME280;32503;47.748;8.960;2023-01-25T03:44:23;98215.41;;;4.50;68.51
3150;BME280;32503;47.748;8.960;2023-01-25T03:46:50;98213.53;;;4.50;68.11
3150;BME280;32503;47.748;8.960;2023-01-25T03:49:17;98203.63;;;4.51;68.22
3150;BME280;32503;47.748;8.960;2023-01-25T03:51:46;98203.09;;;4.49;68.45
3150;BME280;32503;47.748;8.960;2023-01-25T03:54:13;98201.78;;;4.46;68.47
3150;BME280;32503;47.748;8.960;2023-01-25T03:56:41;98207.66;;;4.48;68.41
3150;BME280;32503;47.748;8.960;2023-01-25T03:59:09;98193.97;;;4.50;68.32
3150;BME280;32503;47.748;8.960;2023-01-25T04:01:36;98191.16;;;4.36;68.41
3150;BME280;32503;47.748;8.960;2023-01-25T04:04:03;98191.59;;;4.48;68.43
3150;BME280;32503;47.748;8.960;2023-01-25T04:06:30;98178.53;;;4.42;68.60
3150;BME280;32503;47.748;8.960;2023-01-25T04:08:59;98191.63;;;4.43;68.97
3150;BME280;32503;47.748;8.960;2023-01-25T04:11:26;98189.19;;;4.47;68.87
3150;BME280;32503;47.748;8.960;2023-01-25T04:13:53;98184.88;;;4.51;68.64
3150;BME280;32503;47.748;8.960;2023-01-25T04:16:20;98185.09;;;4.54;68.75
3150;BME280;32503;47.748;8.960;2023-01-25T04:18:47;98184.03;;;4.55;68.36
3150;BME280;32503;47.748;8.960;2023-01-25T04:21:14;98187.22;;;4.58;68.54
3150;BME280;32503;47.748;8.960;2023-01-25T04:23:41;98179.94;;;4.63;68.32
3150;BME280;32503;47.748;8.960;2023-01-25T04:26:10;98184.53;;;4.58;68.45
3150;BME280;32503;47.748;8.960;2023-01-25T04:28:37;98180.56;;;4.50;68.77
3150;BME280;32503;47.748;8.960;2023-01-25T04:31:04;98169.13;;;4.44;68.61
3150;BME280;32503;47.748;8.960;2023-01-25T04:33:32;98178.28;;;4.38;68.66
3150;BME280;32503;47.748;8.960;2023-01-25T04:35:59;98178.53;;;4.42;69.29
3150;BME280;32503;47.748;8.960;2023-01-25T04:38:26;98178.28;;;4.38;68.92
3150;BME280;32503;47.748;8.960;2023-01-25T04:40:54;98171.88;;;4.34;69.27
3150;BME280;32503;47.748;8.960;2023-01-25T04:43:22;98170.94;;;4.20;69.72
3150;BME280;32503;47.748;8.960;2023-01-25T04:45:51;98164.00;;;4.18;69.68
3150;BME280;32503;47.748;8.960;2023-01-25T04:48:18;98170.09;;;4.24;69.59
3150;BME280;32503;47.748;8.960;2023-01-25T04:50:45;98169.50;;;4.32;69.53
3150;BME280;32503;47.748;8.960;2023-01-25T04:53:12;98172.94;;;4.38;69.24
3150;BME280;32503;47.748;8.960;2023-01-25T04:55:39;98179.31;;;4.42;69.29
3150;BME280;32503;47.748;8.960;2023-01-25T04:58:10;98173.97;;;4.42;69.20
3150;BME280;32503;47.748;8.960;2023-01-25T05:00:38;98186.78;;;4.45;69.12
3150;BME280;32503;47.748;8.960;2023-01-25T05:03:05;98148.94;;;4.28;69.13
3150;BME280;32503;47.748;8.960;2023-01-25T05:05:32;98179.78;;;4.49;68.85
3150;BME280;32503;47.748;8.960;2023-01-25T05:07:59;98175.81;;;4.47;69.05
3150;BME280;32503;47.748;8.960;2023-01-25T05:10:26;98176.16;;;4.35;69.44
3150;BME280;32503;47.748;8.960;2023-01-25T05:12:53;98169.69;;;4.41;69.49
3150;BME280;32503;47.748;8.960;2023-01-25T05:15:20;98173.50;;;4.35;69.42
3150;BME280;32503;47.748;8.960;2023-01-25T05:17:49;98172.97;;;4.33;69.47
3150;BME280;32503;47.748;8.960;2023-01-25T05:20:16;98172.44;;;4.36;69.51
3150;BME280;32503;47.748;8.960;2023-01-25T05:22:43;98170.81;;;4.35;69.57
3150;BME280;32503;47.748;8.960;2023-01-25T05:25:10;98167.59;;;4.38;69.40
3150;BME280;32503;47.748;8.960;2023-01-25T05:27:51;98170.31;;;4.33;69.55
3150;BME280;32503;47.748;8.960;2023-01-25T05:30:18;98167.09;;;4.31;69.34
3150;BME280;32503;47.748;8.960;2023-01-25T05:32:46;98161.75;;;4.31;69.44
3150;BME280;32503;47.748;8.960;2023-01-25T05:35:15;98164.16;;;4.32;69.25
3150;BME280;32503;47.748;8.960;2023-01-25T05:37:42;98172.13;;;4.37;69.35
3150;BME280;32503;47.748;8.960;2023-01-25T05:40:10;98162.00;;;4.34;69.17
3150;BME280;32503;47.748;8.960;2023-01-25T05:42:38;98160.63;;;4.37;69.12
3150;BME280;32503;47.748;8.960;2023-01-25T05:45:07;98159.56;;;4.38;68.97
3150;BME280;32503;47.748;8.960;2023-01-25T05:47:34;98156.41;;;4.31;68.58
3150;BME280;32503;47.748;8.960;2023-01-25T05:50:01;98148.94;;;4.28;68.66
3150;BME280;32503;47.748;8.960;2023-01-25T05:52:30;98153.13;;;4.34;68.52
3150;BME280;32503;47.748;8.960;2023-01-25T05:54:57;98161.56;;;4.22;68.40
3150;BME280;32503;47.748;8.960;2023-01-25T05:57:24;98154.78;;;4.30;68.43
3150;BME280;32503;47.748;8.960;2023-01-25T05:59:53;98156.63;;;4.34;68.25
3150;BME280;32503;47.748;8.960;2023-01-25T06:02:20;98162.22;;;4.38;68.24
3150;BME280;32503;47.748;8.960;2023-01-25T06:04:47;98153.09;;;4.39;67.94
3150;BME280;32503;47.748;8.960;2023-01-25T06:07:14;98154.75;;;4.35;68.30
3150;BME280;32503;47.748;8.960;2023-01-25T06:09:43;98152.06;;;4.35;68.22
3150;BME280;32503;47.748;8.960;2023-01-25T06:12:10;98158.97;;;4.41;67.85
3150;BME280;32503;47.748;8.960;2023-01-25T06:14:37;98159.50;;;4.43;67.71
3150;BME280;32503;47.748;8.960;2023-01-25T06:17:04;98156.59;;;4.40;67.60
3150;BME280;32503;47.748;8.960;2023-01-25T06:19:31;98160.63;;;4.37;67.47
3150;BME280;32503;47.748;8.960;2023-01-25T06:21:58;98154.75;;;4.35;67.66
3150;BME280;32503;47.748;8.960;2023-01-25T06:24:25;98130.31;;;4.42;68.58
3150;BME280;32503;47.748;8.960;2023-01-25T06:26:53;98158.91;;;4.46;67.73
3150;BME280;32503;47.748;8.960;2023-01-25T06:29:21;98158.91;;;4.46;68.06
3150;BME280;32503;47.748;8.960;2023-01-25T06:31:48;98153.09;;;4.39;67.67
3150;BME280;32503;47.748;8.960;2023-01-25T06:34:15;98141.91;;;4.32;67.70
3150;BME280;32503;47.748;8.960;2023-01-25T06:36:42;98147.28;;;4.32;67.82
3150;BME280;32503;47.748;8.960;2023-01-25T06:39:09;98156.34;;;4.36;68.05
3150;BME280;32503;47.748;8.960;2023-01-25T06:41:36;98142.97;;;4.36;68.20
3150;BME280;32503;47.748;8.960;2023-01-25T06:44:05;98146.16;;;4.38;67.82
3150;BME280;32503;47.748;8.960;2023-01-25T06:46:32;98120.59;;;4.22;67.96
3150;BME280;32503;47.748;8.960;2023-01-25T06:48:59;98147.19;;;4.42;68.01
3150;BME280;32503;47.748;8.960;2023-01-25T06:51:26;98152.53;;;4.42;68.25
3150;BME280;32503;47.748;8.960;2023-01-25T06:53:53;98148.44;;;4.50;68.09
3150;BME280;32503;47.748;8.960;2023-01-25T06:56:21;98154.44;;;4.42;68.43
3150;BME280;32503;47.748;8.960;2023-01-25T06:58:49;98145.03;;;4.44;68.44
3150;BME280;32503;47.748;8.960;2023-01-25T07:01:20;98138.16;;;4.33;68.84
3150;BME280;32503;47.748;8.960;2023-01-25T07:03:53;98143.53;;;4.33;69.29
3150;BME280;32503;47.748;8.960;2023-01-25T07:06:22;98140.38;;;4.26;69.13
3150;BME280;32503;47.748;8.960;2023-01-25T07:08:50;98149.13;;;4.36;69.21
3150;BME280;32503;47.748;8.960;2023-01-25T07:11:17;98151.13;;;4.21;69.80
3150;BME280;32503;47.748;8.960;2023-01-25T07:13:46;98148.69;;;4.24;69.21
3150;BME280;32503;47.748;8.960;2023-01-25T07:16:18;98140.91;;;4.28;69.47
3150;BME280;32503;47.748;8.960;2023-01-25T07:18:46;98143.09;;;4.21;69.22
3150;BME280;32503;47.748;8.960;2023-01-25T07:21:15;98142.75;;;4.32;68.90
3150;BME280;32503;47.748;8.960;2023-01-25T07:23:43;98137.66;;;4.31;68.94
3150;BME280;32503;47.748;8.960;2023-01-25T07:26:16;98133.38;;;4.30;69.04
3150;BME280;32503;47.748;8.960;2023-01-25T07:28:44;98128.16;;;4.44;70.14
3150;BME280;32503;47.748;8.960;2023-01-25T07:31:11;98113.94;;;4.48;70.24
3150;BME280;32503;47.748;8.960;2023-01-25T07:33:40;98128.16;;;4.44;69.22
3150;BME280;32503;47.748;8.960;2023-01-25T07:36:10;98127.38;;;4.43;69.17
3150;BME280;32503;47.748;8.960;2023-01-25T07:38:37;98132.97;;;4.47;69.11
3150;BME280;32503;47.748;8.960;2023-01-25T07:41:04;98124.69;;;4.43;69.13
3150;BME280;32503;47.748;8.960;2023-01-25T07:43:32;98120.97;;;4.39;69.25
3150;BME280;32503;47.748;8.960;2023-01-25T07:46:03;98129.03;;;4.34;68.95
3150;BME280;32503;47.748;8.960;2023-01-25T07:48:31;98118.34;;;4.34;68.83
3150;BME280;32503;47.748;8.960;2023-01-25T07:51:00;98130.66;;;4.35;68.74
3150;BME280;32503;47.748;8.960;2023-01-25T07:53:49;98130.88;;;4.39;68.84
3150;BME280;32503;47.748;8.960;2023-01-25T07:56:17;98118.91;;;4.31;68.90
3150;BME280;32503;47.748;8.960;2023-01-25T07:58:45;98119.94;;;4.35;68.82
3150;BME280;32503;47.748;8.960;2023-01-25T08:01:14;98123.88;;;4.43;68.89
3150;BME280;32503;47.748;8.960;2023-01-25T08:03:42;98129.47;;;4.46;68.65
3150;BME280;32503;47.748;8.960;2023-01-25T08:06:11;98125.44;;;4.49;68.54
3150;BME280;32503;47.748;8.960;2023-01-25T08:08:42;98118.75;;;4.46;68.21
3150;BME280;32503;47.748;8.960;2023-01-25T08:11:13;98110.72;;;4.46;67.82
3150;BME280;32503;47.748;8.960;2023-01-25T08:13:41;98116.75;;;4.33;68.23
3150;BME280;32503;47.748;8.960;2023-01-25T08:16:12;98120.44;;;4.37;67.96
3150;BME280;32503;47.748;8.960;2023-01-25T08:18:39;98120.91;;;4.44;67.29
3150;BME280;32503;47.748;8.960;2023-01-25T08:21:06;98118.78;;;4.41;67.23
3150;BME280;32503;47.748;8.960;2023-01-25T08:23:35;98129.94;;;4.24;67.70
3150;BME280;32503;47.748;8.960;2023-01-25T08:26:05;98113.19;;;4.13;67.79
3150;BME280;32503;47.748;8.960;2023-01-25T08:28:33;98117.03;;;4.31;67.43
3150;BME280;32503;47.748;8.960;2023-01-25T08:31:12;98112.47;;;4.32;67.45
3150;BME280;32503;47.748;8.960;2023-01-25T08:33:40;98108.09;;;4.41;66.94
3150;BME280;32503;47.748;8.960;2023-01-25T08:36:08;98110.84;;;4.36;67.29
3150;BME280;32503;47.748;8.960;2023-01-25T08:38:38;98103.88;;;4.35;67.15
3150;BME280;32503;47.748;8.960;2023-01-25T08:41:06;98107.75;;;4.24;67.27
3150;BME280;32503;47.748;8.960;2023-01-25T08:43:33;98111.22;;;4.24;67.22
3150;BME280;32503;47.748;8.960;2023-01-25T08:46:01;98106.13;;;4.23;67.28
3150;BME280;32503;47.748;8.960;2023-01-25T08:48:28;98110.22;;;4.15;67.58
3150;BME280;32503;47.748;8.960;2023-01-25T08:50:55;98099.84;;;4.08;67.99
3150;BME280;32503;47.748;8.960;2023-01-25T08:53:22;98094.81;;;4.02;68.09
3150;BME280;32503;47.748;8.960;2023-01-25T08:55:51;98083.31;;;4.01;67.84
3150;BME280;32503;47.748;8.960;2023-01-25T08:58:18;98088.66;;;4.01;68.18
3150;BME280;32503;47.748;8.960;2023-01-25T09:00:47;98083.31;;;4.01;68.09
3150;BME280;32503;47.748;8.960;2023-01-25T09:03:14;98076.41;;;3.95;67.95
3150;BME280;32503;47.748;8.960;2023-01-25T09:05:42;98083.28;;;4.06;67.92
3150;BME280;32503;47.748;8.960;2023-01-25T09:08:09;98071.47;;;4.07;67.62
3150;BME280;32503;47.748;8.960;2023-01-25T09:10:36;98080.31;;;4.08;67.52
3150;BME280;32503;47.748;8.960;2023-01-25T09:13:05;98064.44;;;4.16;67.56
3150;BME280;32503;47.748;8.960;2023-01-25T09:15:32;98065.13;;;4.27;67.35
3150;BME280;32503;47.748;8.960;2023-01-25T09:17:59;98062.47;;;4.27;67.20
3150;BME280;32503;47.748;8.960;2023-01-25T09:20:26;98054.06;;;4.34;67.09
3150;BME280;32503;47.748;8.960;2023-01-25T09:22:54;98055.13;;;4.38;66.97
3150;BME280;32503;47.748;8.960;2023-01-25T09:25:21;98040.13;;;4.37;67.27
3150;BME280;32503;47.748;8.960;2023-01-25T09:27:49;98057.09;;;4.51;67.07
3150;BME280;32503;47.748;8.960;2023-01-25T09:30:18;98050.63;;;4.58;67.11
3150;BME280;32503;47.748;8.960;2023-01-25T09:32:47;98059.66;;;4.62;67.12
3150;BME280;32503;47.748;8.960;2023-01-25T09:35:15;98056.44;;;4.65;67.30
3150;BME280;32503;47.748;8.960;2023-01-25T09:37:42;98053.41;;;4.71;67.55
3150;BME280;32503;47.748;8.960;2023-01-25T09:40:18;98048.06;;;4.71;67.18
3150;BME280;32503;47.748;8.960;2023-01-25T09:42:59;98046.16;;;4.72;67.31
3150;BME280;32503;47.748;8.960;2023-01-25T09:45:32;98051.69;;;4.81;67.49
3150;BME280;32503;47.748;8.960;2023-01-25T09:48:15;98055.66;;;4.83;66.91
3150;BME280;32503;47.748;8.960;2023-01-25T09:51:17;98051.69;;;4.81;66.57
3150;BME280;32503;47.748;8.960;2023-01-25T09:53:49;98052.41;;;4.86;66.13
3150;BME280;32503;47.748;8.960;2023-01-25T09:56:23;98036.19;;;4.78;65.87
3150;BME280;32503;47.748;8.960;2023-01-25T09:58:54;98052.59;;;4.71;65.60
3150;BME280;32503;47.748;8.960;2023-01-25T10:01:36;98055.22;;;4.76;65.56
3150;BME280;32503;47.748;8.960;2023-01-25T10:04:15;98060.13;;;4.69;65.52
3150;BME280;32503;47.748;8.960;2023-01-25T10:06:46;98055.00;;;4.72;65.59
3150;BME280;32503;47.748;8.960;2023-01-25T10:09:25;98053.53;;;4.61;65.55
3150;BME280;32503;47.748;8.960;2023-01-25T10:11:53;98045.88;;;4.49;65.42
3150;BME280;32503;47.748;8.960;2023-01-25T10:14:20;98047.59;;;4.40;66.33
3150;BME280;32503;47.748;8.960;2023-01-25T10:17:02;98030.50;;;4.36;66.13
3150;BME280;32503;47.748;8.960;2023-01-25T10:19:45;98045.88;;;4.49;66.36
3150;BME280;32503;47.748;8.960;2023-01-25T10:22:19;98051.81;;;4.46;66.63
3150;BME280;32503;47.748;8.960;2023-01-25T10:25:18;98043.25;;;4.44;66.65
3150;BME280;32503;47.748;8.960;2023-01-25T10:28:02;98044.75;;;4.55;66.43
3150;BME280;32503;47.748;8.960;2023-01-25T10:30:38;98047.88;;;4.63;66.29
3150;BME280;32503;47.748;8.960;2023-01-25T10:33:14;98040.31;;;4.70;66.56
3150;BME280;32503;47.748;8.960;2023-01-25T10:35:45;98044.03;;;4.69;66.47
3150;BME280;32503;47.748;8.960;2023-01-25T10:38:19;98040.34;;;4.65;66.68
3150;BME280;32503;47.748;8.960;2023-01-25T10:40:55;98037.91;;;4.68;66.31
3150;BME280;32503;47.748;8.960;2023-01-25T10:43:23;98037.41;;;4.66;66.31
3150;BME280;32503;47.748;8.960;2023-01-25T10:45:50;98032.88;;;4.62;66.57
3150;BME280;32503;47.748;8.960;2023-01-25T10:48:23;98029.66;;;4.65;66.61
3150;BME280;32503;47.748;8.960;2023-01-25T10:50:52;98030.22;;;4.62;66.72
3150;BME280;32503;47.748;8.960;2023-01-25T10:53:26;98025.19;;;4.55;66.75
3150;BME280;32503;47.748;8.960;2023-01-25T10:56:14;98025.34;;;4.64;66.63
3150;BME280;32503;47.748;8.960;2023-01-25T10:58:46;98021.84;;;4.68;65.71
3150;BME280;32503;47.748;8.960;2023-01-25T11:01:26;98017.81;;;4.66;65.92
3150;BME280;32503;47.748;8.960;2023-01-25T11:03:55;98021.16;;;4.58;66.03
3150;BME280;32503;47.748;8.960;2023-01-25T11:06:33;98018.41;;;4.63;66.42
3150;BME280;32503;47.748;8.960;2023-01-25T11:09:01;98014.47;;;4.55;65.90
3150;BME280;32503;47.748;8.960;2023-01-25T11:11:53;98016.03;;;4.61;65.81
3150;BME280;32503;47.748;8.960;2023-01-25T11:14:23;98020.59;;;4.61;65.90
3150;BME280;32503;47.748;8.960;2023-01-25T11:16:51;98001.91;;;4.55;66.12
3150;BME280;32503;47.748;8.960;2023-01-25T11:19:31;98002.13;;;4.59;66.11
3150;BME280;32503;47.748;8.960;2023-01-25T11:22:01;97996.09;;;4.48;65.70
3150;BME280;32503;47.748;8.960;2023-01-25T11:24:31;97998.78;;;4.48;66.04
3150;BME280;32503;47.748;8.960;2023-01-25T11:27:18;97988.50;;;4.55;66.22
3150;BME280;32503;47.748;8.960;2023-01-25T11:30:05;97990.16;;;4.51;66.04
3150;BME280;32503;47.748;8.960;2023-01-25T11:32:33;97982.41;;;4.50;65.64
3150;BME280;32503;47.748;8.960;2023-01-25T11:35:01;97977.88;;;4.50;66.33
3150;BME280;32503;47.748;8.960;2023-01-25T11:37:42;97973.50;;;4.54;66.53
3150;BME280;32503;47.748;8.960;2023-01-25T11:40:17;97978.81;;;4.60;66.36
3150;BME280;32503;47.748;8.960;2023-01-25T11:42:58;97973.72;;;4.58;66.54
3150;BME280;32503;47.748;8.960;2023-01-25T11:45:56;97972.16;;;4.57;66.38
3150;BME280;32503;47.748;8.960;2023-01-25T11:49:04;97964.84;;;4.63;66.91
3150;BME280;32503;47.748;8.960;2023-01-25T11:51:42;97956.88;;;4.58;67.00
3150;BME280;32503;47.748;8.960;2023-01-25T11:54:33;97955.50;;;4.60;66.64
3150;BME280;32503;47.748;8.960;2023-01-25T11:57:22;97949.78;;;4.67;66.87
3150;BME280;32503;47.748;8.960;2023-01-25T12:00:09;97946.59;;;4.65;66.37
3150;BME280;32503;47.748;8.960;2023-01-25T12:03:06;97939.28;;;4.70;66.15
3150;BME280;32503;47.748;8.960;2023-01-25T12:05:52;97944.44;;;4.67;66.07
3150;BME280;32503;47.748;8.960;2023-01-25T12:08:36;97929.97;;;4.68;66.26
3150;BME280;32503;47.748;8.960;2023-01-25T12:11:13;97925.19;;;4.65;66.43
3150;BME280;32503;47.748;8.960;2023-01-25T12:13:52;97912.41;;;4.56;66.56
3150;BME280;32503;47.748;8.960;2023-01-25T12:16:39;97908.22;;;4.50;66.50
3150;BME280;32503;47.748;8.960;2023-01-25T12:19:42;97900.91;;;4.56;66.74
3150;BME280;32503;47.748;8.960;2023-01-25T12:22:37;97908.09;;;4.61;66.45
3150;BME280;32503;47.748;8.960;2023-01-25T12:25:20;97899.47;;;4.64;66.29
3150;BME280;32503;47.748;8.960;2023-01-25T12:28:05;97897.16;;;4.57;66.16
3150;BME280;32503;47.748;8.960;2023-01-25T12:30:47;97892.88;;;4.56;66.09
3150;BME280;32503;47.748;8.960;2023-01-25T12:33:20;97894.38;;;4.62;66.07
3150;BME280;32503;47.748;8.960;2023-01-25T12:35:55;97887.16;;;4.63;65.51
3150;BME280;32503;47.748;8.960;2023-01-25T12:38:31;97884.06;;;4.55;65.33
3150;BME280;32503;47.748;8.960;2023-01-25T12:41:07;97889.84;;;4.63;65.25
3150;BME280;32503;47.748;8.960;2023-01-25T12:43:43;97878.63;;;4.61;65.28
3150;BME280;32503;47.748;8.960;2023-01-25T12:46:16;97882.38;;;4.60;65.36
3150;BME280;32503;47.748;8.960;2023-01-25T12:48:49;97872.38;;;4.65;65.27
3150;BME280;32503;47.748;8.960;2023-01-25T12:51:19;97863.56;;;4.65;65.59
3150;BME280;32503;47.748;8.960;2023-01-25T12:53:49;97857.72;;;4.63;65.65
3150;BME280;32503;47.748;8.960;2023-01-25T12:56:30;97860.25;;;4.73;65.38
3150;BME280;32503;47.748;8.960;2023-01-25T12:59:04;97854.88;;;4.73;65.55
3150;BME280;32503;47.748;8.960;2023-01-25T13:01:40;97851.97;;;4.69;65.56
3150;BME280;32503;47.748;8.960;2023-01-25T13:04:24;97844.53;;;4.66;65.48
3150;BME280;32503;47.748;8.960;2023-01-25T13:07:08;97849.00;;;4.71;65.44
3150;BME280;32503;47.748;8.960;2023-01-25T13:09:51;97853.00;;;4.73;65.69
3150;BME280;32503;47.748;8.960;2023-01-25T13:12:23;97848.41;;;4.74;65.48
3150;BME280;32503;47.748;8.960;2023-01-25T13:14:51;97841.25;;;4.69;66.08
3150;BME280;32503;47.748;8.960;2023-01-25T13:17:29;97846.38;;;4.66;66.01
3150;BME280;32503;47.748;8.960;2023-01-25T13:19:58;97832.50;;;4.64;66.19
3150;BME280;32503;47.748;8.960;2023-01-25T13:22:54;97845.25;;;4.72;65.65
3150;BME280;32503;47.748;8.960;2023-01-25T13:25:24;97836.50;;;4.66;65.77
3150;BME280;32503;47.748;8.960;2023-01-25T13:28:38;97842.06;;;4.70;65.75
3150;BME280;32503;47.748;8.960;2023-01-25T13:31:06;97817.09;;;4.55;65.55
3150;BME280;32503;47.748;8.960;2023-01-25T13:33:34;97838.97;;;4.63;65.69
3150;BME280;32503;47.748;8.960;2023-01-25T13:36:44;97842.91;;;4.65;65.80
3150;BME280;32503;47.748;8.960;2023-01-25T13:39:40;97831.78;;;4.58;65.80
3150;BME280;32503;47.748;8.960;2023-01-25T13:42:20;97829.41;;;4.56;66.22
3150;BME280;32503;47.748;8.960;2023-01-25T13:44:51;97833.97;;;4.56;66.36